Time;durP1;ratioP1;P1;durP2;ratioP2;P2;SDS_P1;SDS_P2;PMS_P1;PMS_P2;Temp;Humidity;BMP_temperature;BMP_pressure;BME280_temperature;BME280_humidity;BME280_pressure;Samples;Min_cycle;Max_cycle;Signal;HPM_P1;HPM_P2
2021/11/15 00:01:13;;;;;;;34.25;15.40;;;;;;;;;;6282731;22;20007;-94
2021/11/15 00:03:48;;;;;;;30.40;15.40;;;;;;;;;;6269002;22;19992;-92
2021/11/15 00:06:14;;;;;;;29.60;14.25;;;;;;;;;;6276583;22;20015;-89
2021/11/15 00:08:40;;;;;;;31.70;15.35;;;;;;;;;;6264756;22;20356;-92
2021/11/15 00:11:07;;;;;;;35.17;17.15;;;;;;;;;;6254578;22;20059;-90
2021/11/15 00:13:42;;;;;;;39.53;19.27;;;;;;;;;;6267488;22;20012;-89
2021/11/15 00:16:11;;;;;;;44.63;19.83;;;;;;;;;;6281822;22;20004;-95
2021/11/15 00:18:41;;;;;;;42.97;19.35;;;;;;;;;;6265152;22;20008;-90
2021/11/15 00:21:09;;;;;;;46.28;20.77;;;;;;;;;;6215071;23;20016;-96
2021/11/15 00:23:44;;;;;;;51.40;22.42;;;;;;;;;;6217857;23;20001;-90
2021/11/15 00:26:10;;;;;;;44.88;19.95;;;;;;;;;;6214867;23;20446;-90
2021/11/15 00:28:42;;;;;;;47.88;20.15;;;;;;;;;;6219016;23;20000;-95
2021/11/15 00:31:10;;;;;;;43.13;20.20;;;;;;;;;;6219932;23;20064;-92
2021/11/15 00:33:36;;;;;;;42.72;19.80;;;;;;;;;;6227070;23;20015;-96
2021/11/15 00:36:05;;;;;;;41.65;18.63;;;;;;;;;;6242263;22;20072;-96
2021/11/15 00:38:35;;;;;;;57.28;21.45;;;;;;;;;;6237297;22;20318;-90
2021/11/15 00:41:05;;;;;;;43.53;20.20;;;;;;;;;;6222064;23;20012;-94
2021/11/15 00:43:36;;;;;;;44.08;19.70;;;;;;;;;;6219989;23;20032;-95
2021/11/15 00:46:21;;;;;;;37.42;17.13;;;;;;;;;;6220221;23;20298;-90
2021/11/15 00:48:55;;;;;;;40.78;17.48;;;;;;;;;;6231813;23;20031;-93
2021/11/15 00:51:31;;;;;;;34.35;18.00;;;;;;;;;;6225512;22;20435;-90
2021/11/15 00:53:58;;;;;;;33.45;15.63;;;;;;;;;;6217031;23;20012;-94
2021/11/15 00:56:26;;;;;;;28.10;14.15;;;;;;;;;;6218835;23;20079;-96
2021/11/15 00:58:54;;;;;;;32.50;14.00;;;;;;;;;;6194296;23;20012;-95
2021/11/15 01:01:21;;;;;;;29.83;13.93;;;;;;;;;;6217716;23;20000;-87
2021/11/15 01:03:47;;;;;;;30.30;13.30;;;;;;;;;;6218698;23;20036;-92
2021/11/15 01:06:16;;;;;;;27.60;13.52;;;;;;;;;;6219002;23;20004;-91
2021/11/15 01:08:45;;;;;;;33.80;14.48;;;;;;;;;;6193445;23;20319;-88
2021/11/15 01:11:12;;;;;;;28.17;13.68;;;;;;;;;;6220339;23;20474;-93
2021/11/15 01:13:41;;;;;;;28.80;13.27;;;;;;;;;;6218716;23;20020;-95
2021/11/15 01:16:08;;;;;;;28.25;12.45;;;;;;;;;;6219682;23;20062;-95
2021/11/15 01:18:35;;;;;;;24.77;11.40;;;;;;;;;;6218386;23;20035;-89
2021/11/15 01:21:07;;;;;;;24.55;12.00;;;;;;;;;;6278210;22;20028;-96
2021/11/15 01:23:37;;;;;;;33.45;11.90;;;;;;;;;;6280012;22;20058;-96
2021/11/15 01:26:04;;;;;;;25.88;10.68;;;;;;;;;;6253256;22;20432;-94
2021/11/15 01:28:32;;;;;;;26.52;12.10;;;;;;;;;;6253656;22;20007;-95
2021/11/15 01:30:59;;;;;;;22.58;10.20;;;;;;;;;;6254120;22;20008;-93
2021/11/15 01:33:26;;;;;;;20.42;9.98;;;;;;;;;;6280191;22;20004;-94
2021/11/15 01:35:55;;;;;;;21.92;11.00;;;;;;;;;;6254111;22;20012;-96
2021/11/15 01:38:21;;;;;;;26.90;10.48;;;;;;;;;;6230259;22;20085;-90
2021/11/15 01:40:49;;;;;;;23.42;9.40;;;;;;;;;;6281092;22;20026;-94
2021/11/15 01:43:16;;;;;;;20.25;8.70;;;;;;;;;;6280750;22;20007;-90
2021/11/15 01:45:43;;;;;;;19.58;8.35;;;;;;;;;;6280941;22;20074;-94
2021/11/15 01:48:13;;;;;;;18.92;8.98;;;;;;;;;;6254713;22;20003;-89
2021/11/15 01:50:41;;;;;;;19.02;8.85;;;;;;;;;;6260216;22;20061;-92
2021/11/15 01:53:09;;;;;;;18.35;8.27;;;;;;;;;;6285319;22;20031;-91
2021/11/15 01:55:38;;;;;;;17.55;6.75;;;;;;;;;;6290375;22;20015;-94
2021/11/15 01:58:10;;;;;;;18.65;7.63;;;;;;;;;;6284411;22;20008;-92
2021/11/15 02:00:49;;;;;;;14.35;6.65;;;;;;;;;;6278994;22;20007;-93
2021/11/15 02:03:16;;;;;;;13.60;6.40;;;;;;;;;;6254308;22;20384;-91
2021/11/15 02:05:44;;;;;;;13.38;6.30;;;;;;;;;;6281259;22;20027;-92
2021/11/15 02:08:15;;;;;;;13.13;6.00;;;;;;;;;;6279612;22;20078;-94
2021/11/15 02:10:42;;;;;;;18.20;6.47;;;;;;;;;;6252058;22;20008;-91
2021/11/15 02:13:09;;;;;;;15.60;6.65;;;;;;;;;;6254029;22;20027;-94
2021/11/15 02:15:38;;;;;;;20.80;8.98;;;;;;;;;;6254055;22;20081;-95
2021/11/15 02:18:06;;;;;;;19.15;8.30;;;;;;;;;;6253192;22;20425;-95
2021/11/15 02:20:52;;;;;;;16.95;7.50;;;;;;;;;;6279204;22;20020;-94
2021/11/15 02:23:20;;;;;;;18.67;8.15;;;;;;;;;;6253064;22;20485;-95
2021/11/15 02:25:49;;;;;;;14.25;5.72;;;;;;;;;;6253634;22;20011;-94
2021/11/15 02:28:20;;;;;;;16.80;7.68;;;;;;;;;;6253738;22;20007;-96
2021/11/15 02:30:47;;;;;;;16.65;7.38;;;;;;;;;;6281144;22;20007;-95
2021/11/15 02:33:14;;;;;;;13.90;6.72;;;;;;;;;;6277298;22;20007;-94
2021/11/15 02:35:42;;;;;;;18.75;6.90;;;;;;;;;;6253556;22;20011;-92
2021/11/15 02:38:09;;;;;;;14.95;6.45;;;;;;;;;;6280959;22;20031;-95
2021/11/15 02:40:37;;;;;;;14.27;6.53;;;;;;;;;;6280456;22;20014;-96
2021/11/15 02:43:05;;;;;;;13.05;6.20;;;;;;;;;;6253721;22;20054;-95
2021/11/15 02:45:35;;;;;;;18.67;7.68;;;;;;;;;;6281246;22;20523;-95
2021/11/15 02:48:01;;;;;;;26.90;7.72;;;;;;;;;;6253572;22;20461;-87
2021/11/15 02:50:28;;;;;;;16.10;6.90;;;;;;;;;;6252412;22;20045;-87
2021/11/15 02:52:57;;;;;;;19.35;7.13;;;;;;;;;;6280010;22;20071;-95
2021/11/15 02:55:25;;;;;;;17.42;7.40;;;;;;;;;;6278984;22;20022;-95
2021/11/15 02:57:53;;;;;;;15.98;6.53;;;;;;;;;;6278740;22;20032;-94
2021/11/15 03:00:34;;;;;;;15.23;6.15;;;;;;;;;;6252478;22;20012;-94
2021/11/15 03:03:00;;;;;;;13.10;6.28;;;;;;;;;;6253000;22;20035;-89
2021/11/15 03:05:30;;;;;;;15.40;6.25;;;;;;;;;;6279537;22;20007;-90
2021/11/15 03:07:57;;;;;;;13.52;6.47;;;;;;;;;;6252781;22;20023;-95
2021/11/15 03:10:24;;;;;;;10.85;5.07;;;;;;;;;;6253715;22;20013;-88
2021/11/15 03:12:53;;;;;;;15.95;7.07;;;;;;;;;;6254886;22;20042;-91
2021/11/15 03:15:25;;;;;;;16.05;6.40;;;;;;;;;;6253369;22;20020;-92
2021/11/15 03:18:01;;;;;;;11.30;5.57;;;;;;;;;;6279679;22;20003;-94
2021/11/15 03:20:30;;;;;;;14.15;5.78;;;;;;;;;;6278805;22;20341;-93
2021/11/15 03:22:57;;;;;;;14.20;6.38;;;;;;;;;;6253143;22;20004;-93
2021/11/15 03:25:25;;;;;;;13.30;5.40;;;;;;;;;;6252644;22;20093;-94
2021/11/15 03:27:53;;;;;;;10.73;5.32;;;;;;;;;;6280244;22;20415;-93
2021/11/15 03:30:20;;;;;;;18.83;6.20;;;;;;;;;;6280524;22;20000;-93
2021/11/15 03:32:48;;;;;;;10.98;5.70;;;;;;;;;;6252726;22;20035;-93
2021/11/15 03:35:15;;;;;;;12.73;5.82;;;;;;;;;;6279484;22;20019;-94
2021/11/15 03:37:42;;;;;;;11.15;5.43;;;;;;;;;;6251667;22;20039;-94
2021/11/15 03:40:13;;;;;;;12.63;5.38;;;;;;;;;;6279708;22;20035;-88
2021/11/15 03:42:40;;;;;;;13.25;4.28;;;;;;;;;;6275855;22;20003;-89
2021/11/15 03:45:08;;;;;;;12.18;4.85;;;;;;;;;;6279386;22;20014;-93
2021/11/15 03:47:35;;;;;;;10.55;5.05;;;;;;;;;;6253418;22;20376;-91
2021/11/15 03:50:04;;;;;;;9.43;4.93;;;;;;;;;;6251448;22;20521;-92
2021/11/15 03:52:30;;;;;;;9.38;3.83;;;;;;;;;;6250693;22;20011;-88
2021/11/15 03:54:58;;;;;;;8.27;4.25;;;;;;;;;;6252886;22;20062;-93
2021/11/15 03:57:25;;;;;;;16.13;5.63;;;;;;;;;;6276165;22;20004;-88
2021/11/15 03:59:56;;;;;;;10.32;4.82;;;;;;;;;;6265219;22;19998;-87
2021/11/15 04:02:29;;;;;;;13.30;6.53;;;;;;;;;;6299272;22;20037;-89
2021/11/15 04:05:02;;;;;;;19.13;6.72;;;;;;;;;;6271611;22;20102;-91
2021/11/15 04:07:33;;;;;;;16.17;7.18;;;;;;;;;;6261763;22;20004;-91
2021/11/15 04:10:01;;;;;;;13.55;6.30;;;;;;;;;;6262178;22;20063;-91
2021/11/15 04:12:33;;;;;;;13.55;6.32;;;;;;;;;;6283774;22;20007;-92
2021/11/15 04:15:01;;;;;;;19.50;6.10;;;;;;;;;;6258325;22;20020;-92
2021/11/15 04:17:33;;;;;;;13.65;5.85;;;;;;;;;;6282534;22;20004;-92
2021/11/15 04:20:02;;;;;;;11.18;4.95;;;;;;;;;;6284719;22;20028;-95
2021/11/15 04:22:32;;;;;;;12.80;4.55;;;;;;;;;;6285803;22;20007;-89
2021/11/15 04:25:00;;;;;;;10.48;4.10;;;;;;;;;;6284268;22;20071;-92
2021/11/15 04:27:31;;;;;;;7.60;3.85;;;;;;;;;;6283085;22;20012;-93
2021/11/15 04:29:57;;;;;;;9.75;4.40;;;;;;;;;;6235585;22;20024;-89
2021/11/15 04:32:23;;;;;;;11.63;4.05;;;;;;;;;;6260593;22;20007;-93
2021/11/15 04:34:52;;;;;;;15.15;4.43;;;;;;;;;;6284747;22;20090;-93
2021/11/15 04:37:23;;;;;;;10.27;4.45;;;;;;;;;;6285822;22;20065;-93
2021/11/15 04:39:54;;;;;;;9.15;4.07;;;;;;;;;;6258279;22;20026;-92
2021/11/15 04:42:21;;;;;;;11.25;5.18;;;;;;;;;;6257392;22;20004;-93
2021/11/15 04:44:49;;;;;;;9.25;4.07;;;;;;;;;;6279209;22;20083;-93
2021/11/15 04:47:20;;;;;;;9.63;4.07;;;;;;;;;;6257638;22;20429;-88
2021/11/15 04:49:48;;;;;;;8.27;4.25;;;;;;;;;;6257060;22;20061;-92
2021/11/15 04:52:15;;;;;;;12.10;4.30;;;;;;;;;;6283145;22;20039;-92
2021/11/15 04:54:43;;;;;;;10.50;4.25;;;;;;;;;;6282955;22;20043;-92
2021/11/15 04:57:10;;;;;;;11.77;4.90;;;;;;;;;;6284701;22;20004;-89
2021/11/15 04:59:39;;;;;;;16.88;4.10;;;;;;;;;;6277728;22;20310;-93
2021/11/15 05:02:06;;;;;;;7.82;3.95;;;;;;;;;;6257924;22;20007;-89
2021/11/15 05:04:34;;;;;;;8.55;3.83;;;;;;;;;;6282138;22;20063;-93
2021/11/15 05:07:00;;;;;;;10.93;4.70;;;;;;;;;;6256484;22;20000;-89
2021/11/15 05:09:27;;;;;;;9.07;4.10;;;;;;;;;;6281822;22;20483;-90
2021/11/15 05:11:54;;;;;;;8.80;3.95;;;;;;;;;;6283690;22;20051;-93
2021/11/15 05:14:21;;;;;;;8.38;4.50;;;;;;;;;;6283309;22;20027;-89
2021/11/15 05:16:49;;;;;;;11.98;4.70;;;;;;;;;;6256910;22;20008;-93
2021/11/15 05:19:16;;;;;;;9.57;4.25;;;;;;;;;;6254876;22;20042;-88
2021/11/15 05:21:42;;;;;;;12.38;4.38;;;;;;;;;;6279426;22;20012;-87
2021/11/15 05:24:09;;;;;;;9.18;4.45;;;;;;;;;;6252408;22;20008;-88
2021/11/15 05:26:35;;;;;;;22.05;4.82;;;;;;;;;;6278926;22;20000;-89
2021/11/15 05:29:02;;;;;;;10.25;4.38;;;;;;;;;;6255015;22;20003;-89
2021/11/15 05:31:28;;;;;;;8.60;3.50;;;;;;;;;;6260474;22;20079;-90
2021/11/15 05:33:56;;;;;;;11.50;5.05;;;;;;;;;;6286237;22;20424;-87
2021/11/15 05:36:25;;;;;;;8.07;4.40;;;;;;;;;;6259113;22;20007;-89
2021/11/15 05:38:53;;;;;;;7.97;4.53;;;;;;;;;;6235763;22;20451;-86
2021/11/15 05:41:19;;;;;;;17.77;3.60;;;;;;;;;;6234096;22;20091;-87
2021/11/15 05:44:17;;;;;;;7.47;3.30;;;;;;;;;;6262509;22;19999;-90
2021/11/15 05:46:43;;;;;;;7.32;2.75;;;;;;;;;;6205269;22;20003;-85
2021/11/15 05:49:09;;;;;;;10.77;3.55;;;;;;;;;;6256957;22;20023;-86
2021/11/15 05:51:35;;;;;;;13.77;4.07;;;;;;;;;;6259882;22;20004;-87
2021/11/15 05:54:11;;;;;;;18.20;3.42;;;;;;;;;;6257391;22;20007;-87
2021/11/15 05:56:38;;;;;;;9.55;4.18;;;;;;;;;;6254808;22;20012;-87
2021/11/15 05:59:04;;;;;;;6.75;3.33;;;;;;;;;;6285177;22;20000;-87
2021/11/15 06:01:30;;;;;;;10.45;3.47;;;;;;;;;;6256535;22;20015;-88
2021/11/15 06:03:57;;;;;;;10.23;3.83;;;;;;;;;;6261172;22;20007;-87
2021/11/15 06:06:23;;;;;;;10.40;4.80;;;;;;;;;;6263038;22;20068;-94
2021/11/15 06:09:17;;;;;;;9.85;3.95;;;;;;;;;;6297196;22;19988;-92
2021/11/15 06:21:17;;;;;;;6.75;3.90;;;;;;;;;;6254843;22;20020;-95
2021/11/15 06:24:27;;;;;;;7.68;2.92;;;;;;;;;;6244474;23;20027;-93
2021/11/15 06:44:57;;;;;;;9.27;4.45;;;;;;;;;;6239841;22;20035;-95
2021/11/15 06:53:20;;;;;;;11.50;5.05;;;;;;;;;;6227357;22;20068;-95
2021/11/15 06:55:48;;;;;;;11.88;4.57;;;;;;;;;;6267318;23;20130;-92
2021/11/15 07:01:24;;;;;;;9.70;5.78;;;;;;;;;;6266868;23;20015;-94
2021/11/15 07:04:22;;;;;;;13.57;5.95;;;;;;;;;;6264854;23;20014;-93
2021/11/15 07:07:08;;;;;;;17.88;6.72;;;;;;;;;;6244706;22;20052;-93
2021/11/15 07:09:55;;;;;;;14.07;6.20;;;;;;;;;;6264954;22;20023;-94
2021/11/15 07:18:11;;;;;;;10.68;6.10;;;;;;;;;;6247992;22;20012;-95
2021/11/15 07:21:21;;;;;;;9.90;5.43;;;;;;;;;;6243997;23;19997;-95
2021/11/15 07:24:14;;;;;;;36.33;5.60;;;;;;;;;;6215116;23;20039;-93
2021/11/15 07:27:00;;;;;;;11.85;5.00;;;;;;;;;;6247518;22;20311;-94
2021/11/15 07:29:47;;;;;;;13.60;5.55;;;;;;;;;;6253198;22;20028;-95
2021/11/15 07:35:31;;;;;;;9.50;3.97;;;;;;;;;;6240456;22;20031;-96
2021/11/15 07:38:02;;;;;;;8.45;3.80;;;;;;;;;;6238732;22;20012;-94
2021/11/15 07:45:33;;;;;;;7.90;3.45;;;;;;;;;;6235433;22;20076;-94
2021/11/15 07:51:09;;;;;;;8.02;3.78;;;;;;;;;;6243898;22;21243;-91
2021/11/15 07:53:51;;;;;;;8.80;4.05;;;;;;;;;;6210594;22;20009;-95
2021/11/15 07:56:36;;;;;;;8.63;4.13;;;;;;;;;;6185123;22;20022;-95
2021/11/15 07:59:11;;;;;;;11.23;4.45;;;;;;;;;;6206603;23;20013;-95
2021/11/15 08:01:49;;;;;;;9.70;4.65;;;;;;;;;;6203599;23;20032;-94
2021/11/15 08:04:42;;;;;;;8.23;5.38;;;;;;;;;;6207754;23;20061;-94
2021/11/15 08:07:18;;;;;;;8.07;4.75;;;;;;;;;;6208226;23;20005;-94
2021/11/15 08:09:45;;;;;;;8.52;4.68;;;;;;;;;;6195265;23;20064;-94
2021/11/15 08:12:15;;;;;;;6.63;4.32;;;;;;;;;;6191108;23;20028;-94
2021/11/15 08:14:45;;;;;;;9.10;4.40;;;;;;;;;;6193269;23;20020;-94
2021/11/15 08:17:15;;;;;;;10.15;4.78;;;;;;;;;;6194594;23;20006;-94
2021/11/15 08:20:13;;;;;;;9.60;5.30;;;;;;;;;;6198687;23;20120;-96
2021/11/15 08:31:16;;;;;;;8.82;5.03;;;;;;;;;;6292430;22;20042;-94
2021/11/15 08:33:58;;;;;;;8.60;5.18;;;;;;;;;;6270379;22;20015;-94
2021/11/15 08:36:25;;;;;;;;;;;;;;;;;;6291808;22;20057;-95
2021/11/15 08:39:19;;;;;;;9.13;5.78;;;;;;;;;;6258229;22;19903;-94
2021/11/15 08:41:46;;;;;;;;;;;;;;;;;;6255935;22;20008;-93
2021/11/15 08:44:18;;;;;;;13.50;6.82;;;;;;;;;;6258354;22;19900;-94
2021/11/15 08:49:59;;;;;;;10.13;6.18;;;;;;;;;;6292695;22;20057;-95
2021/11/15 08:52:26;;;;;;;11.18;6.40;;;;;;;;;;6268961;22;20333;-94
2021/11/15 08:55:04;;;;;;;11.98;6.45;;;;;;;;;;6218729;22;20022;-94
2021/11/15 08:57:30;;;;;;;12.77;7.13;;;;;;;;;;6268660;22;20011;-94
2021/11/15 08:59:58;;;;;;;11.00;6.63;;;;;;;;;;6259201;22;20069;-95
2021/11/15 09:02:29;;;;;;;11.30;6.30;;;;;;;;;;6257688;22;20444;-94
2021/11/15 09:05:30;;;;;;;11.00;6.88;;;;;;;;;;6260973;22;20012;-95
2021/11/15 09:08:14;;;;;;;11.60;6.53;;;;;;;;;;6231833;22;20344;-95
2021/11/15 09:13:22;;;;;;;12.30;6.95;;;;;;;;;;6262374;22;20055;-96
2021/11/15 09:15:49;;;;;;;12.40;6.70;;;;;;;;;;6232687;23;20390;-94
2021/11/15 09:18:21;;;;;;;12.10;6.93;;;;;;;;;;6228139;22;20000;-95
2021/11/15 09:20:47;;;;;;;12.68;7.32;;;;;;;;;;6229419;22;20008;-94
2021/11/15 09:23:14;;;;;;;14.55;7.80;;;;;;;;;;6221989;23;20036;-94
2021/11/15 09:25:41;;;;;;;13.30;7.72;;;;;;;;;;6222390;23;20011;-94
2021/11/15 09:28:08;;;;;;;13.93;7.45;;;;;;;;;;6224966;22;20066;-93
2021/11/15 09:30:35;;;;;;;13.68;7.22;;;;;;;;;;6223858;23;20013;-92
2021/11/15 09:33:02;;;;;;;16.42;7.22;;;;;;;;;;6220401;22;20067;-93
2021/11/15 09:35:28;;;;;;;12.43;7.53;;;;;;;;;;6221257;23;20012;-93
2021/11/15 09:37:54;;;;;;;14.27;8.13;;;;;;;;;;6221657;23;20011;-93
2021/11/15 09:40:20;;;;;;;12.93;7.35;;;;;;;;;;6222341;23;20004;-94
2021/11/15 09:42:47;;;;;;;15.07;7.95;;;;;;;;;;6221606;22;20002;-93
2021/11/15 09:45:13;;;;;;;14.77;8.32;;;;;;;;;;6221217;23;20437;-94
2021/11/15 09:47:41;;;;;;;15.75;8.80;;;;;;;;;;6222091;23;20000;-93
2021/11/15 09:50:08;;;;;;;15.27;8.10;;;;;;;;;;6225697;22;20039;-93
2021/11/15 09:52:35;;;;;;;15.27;8.75;;;;;;;;;;6224743;23;20014;-94
2021/11/15 09:55:04;;;;;;;12.40;7.43;;;;;;;;;;6247381;23;20083;-92
2021/11/15 09:57:31;;;;;;;13.48;7.95;;;;;;;;;;6221470;23;20000;-93
2021/11/15 09:59:57;;;;;;;14.63;8.95;;;;;;;;;;6222424;23;20012;-94
2021/11/15 10:02:23;;;;;;;14.93;8.07;;;;;;;;;;6221890;23;20023;-93
2021/11/15 10:04:50;;;;;;;14.02;8.20;;;;;;;;;;6221462;23;20028;-91
2021/11/15 10:07:16;;;;;;;12.65;8.25;;;;;;;;;;6222384;22;20039;-93
2021/11/15 10:09:42;;;;;;;12.25;7.70;;;;;;;;;;6227074;23;20016;-93
2021/11/15 10:12:10;;;;;;;14.73;7.25;;;;;;;;;;6221551;23;20019;-92
2021/11/15 10:14:37;;;;;;;12.63;7.80;;;;;;;;;;6222998;23;20023;-93
2021/11/15 10:17:03;;;;;;;11.43;7.57;;;;;;;;;;6221312;23;20004;-93
2021/11/15 10:19:31;;;;;;;12.75;7.93;;;;;;;;;;6221898;23;20062;-94
2021/11/15 10:22:06;;;;;;;11.88;7.60;;;;;;;;;;6221575;23;20008;-94
2021/11/15 10:24:42;;;;;;;12.70;7.80;;;;;;;;;;6221139;23;20387;-92
2021/11/15 10:27:09;;;;;;;14.80;8.32;;;;;;;;;;6224211;23;20091;-94
2021/11/15 10:29:37;;;;;;;14.00;7.55;;;;;;;;;;6221560;23;20004;-94
2021/11/15 10:32:05;;;;;;;14.85;8.18;;;;;;;;;;6224107;22;20012;-94
2021/11/15 10:34:54;;;;;;;13.93;7.93;;;;;;;;;;6221055;23;20016;-94
2021/11/15 10:37:28;;;;;;;15.93;9.50;;;;;;;;;;6221138;23;20008;-93
2021/11/15 10:40:06;;;;;;;14.70;8.75;;;;;;;;;;6221246;23;20434;-95
2021/11/15 10:42:33;;;;;;;13.85;8.48;;;;;;;;;;6220801;23;20441;-94
2021/11/15 10:45:06;;;;;;;15.40;8.82;;;;;;;;;;6221118;23;20004;-94
2021/11/15 10:47:35;;;;;;;15.25;8.10;;;;;;;;;;6214753;23;20010;-94
2021/11/15 10:50:07;;;;;;;15.05;9.52;;;;;;;;;;6220581;23;20058;-94
2021/11/15 10:52:36;;;;;;;16.98;8.82;;;;;;;;;;6221152;23;20007;-93
2021/11/15 10:55:05;;;;;;;14.00;8.27;;;;;;;;;;6221007;23;20012;-93
2021/11/15 10:57:36;;;;;;;14.55;8.30;;;;;;;;;;6220808;23;20004;-94
2021/11/15 11:00:22;;;;;;;13.02;7.97;;;;;;;;;;6221571;23;20012;-92
2021/11/15 11:03:10;;;;;;;14.43;8.60;;;;;;;;;;6225729;23;20024;-94
2021/11/15 11:05:38;;;;;;;16.35;9.15;;;;;;;;;;6224099;23;20005;-95
2021/11/15 11:08:39;;;;;;;15.35;8.07;;;;;;;;;;6254717;23;20048;-94
2021/11/15 11:11:11;;;;;;;14.73;8.18;;;;;;;;;;6221381;23;20061;-93
2021/11/15 11:13:47;;;;;;;14.48;8.40;;;;;;;;;;6224086;23;20012;-95
2021/11/15 11:16:13;;;;;;;15.98;8.13;;;;;;;;;;6223672;23;20091;-94
2021/11/15 11:18:51;;;;;;;16.23;8.05;;;;;;;;;;6224236;23;20003;-95
2021/11/15 11:21:42;;;;;;;14.48;8.15;;;;;;;;;;6222850;23;20012;-93
2021/11/15 11:24:18;;;;;;;15.85;7.95;;;;;;;;;;6201921;23;20011;-94
2021/11/15 11:26:54;;;;;;;15.60;8.73;;;;;;;;;;6221536;23;20009;-93
2021/11/15 11:29:24;;;;;;;14.70;8.00;;;;;;;;;;6221907;23;20338;-94
2021/11/15 11:31:51;;;;;;;16.25;8.82;;;;;;;;;;6222179;23;20325;-93
2021/11/15 11:34:19;;;;;;;16.45;8.98;;;;;;;;;;6250414;23;20032;-92
2021/11/15 11:36:46;;;;;;;18.02;9.45;;;;;;;;;;6220836;23;20019;-92
2021/11/15 11:39:13;;;;;;;17.70;8.98;;;;;;;;;;6228525;23;20015;-94
2021/11/15 11:41:54;;;;;;;15.18;8.95;;;;;;;;;;6225766;22;20024;-95
2021/11/15 11:44:25;;;;;;;19.15;9.77;;;;;;;;;;6227593;23;20056;-93
2021/11/15 11:46:52;;;;;;;21.65;9.15;;;;;;;;;;6221137;23;20004;-95
2021/11/15 11:49:19;;;;;;;21.85;10.50;;;;;;;;;;6218703;23;20005;-94
2021/11/15 11:51:49;;;;;;;22.45;11.77;;;;;;;;;;6218701;23;20015;-95
2021/11/15 11:54:17;;;;;;;20.50;12.02;;;;;;;;;;6218963;23;20453;-94
2021/11/15 11:56:58;;;;;;;20.10;11.35;;;;;;;;;;6218362;23;20000;-94
2021/11/15 11:59:25;;;;;;;19.38;11.10;;;;;;;;;;6221483;23;20004;-95
2021/11/15 12:01:57;;;;;;;20.98;12.15;;;;;;;;;;6217402;23;20103;-94
2021/11/15 12:04:25;;;;;;;21.33;11.17;;;;;;;;;;6217780;23;20051;-93
2021/11/15 12:06:51;;;;;;;23.80;11.75;;;;;;;;;;6218547;23;20001;-93
2021/11/15 12:09:18;;;;;;;21.42;12.60;;;;;;;;;;6223402;23;20088;-96
2021/11/15 12:11:55;;;;;;;22.25;13.57;;;;;;;;;;6222782;23;20064;-96
2021/11/15 12:14:41;;;;;;;27.77;15.02;;;;;;;;;;6245214;23;20004;-95
2021/11/15 12:17:13;;;;;;;27.02;16.23;;;;;;;;;;6245220;23;20008;-94
2021/11/15 12:19:49;;;;;;;35.35;17.17;;;;;;;;;;6232701;23;20015;-96
2021/11/15 12:22:21;;;;;;;34.60;16.23;;;;;;;;;;6231620;23;20015;-95
2021/11/15 12:25:20;;;;;;;33.83;18.73;;;;;;;;;;6232911;23;20005;-94
2021/11/15 12:27:53;;;;;;;35.63;21.75;;;;;;;;;;6225460;23;20009;-95
2021/11/15 12:30:22;;;;;;;38.63;22.38;;;;;;;;;;6223106;23;20036;-94
2021/11/15 12:33:15;;;;;;;38.75;22.08;;;;;;;;;;6225868;23;20008;-93
2021/11/15 12:36:02;;;;;;;38.10;18.83;;;;;;;;;;6215631;23;20068;-94
2021/11/15 12:38:49;;;;;;;35.45;19.20;;;;;;;;;;6226759;23;20084;-94
2021/11/15 12:41:19;;;;;;;36.88;19.77;;;;;;;;;;6214370;23;20061;-94
2021/11/15 12:44:05;;;;;;;38.15;20.08;;;;;;;;;;6230569;23;20019;-93
2021/11/15 12:46:47;;;;;;;33.35;17.70;;;;;;;;;;6227061;23;20414;-95
2021/11/15 12:49:25;;;;;;;38.72;18.48;;;;;;;;;;6226561;23;20039;-94
2021/11/15 12:52:14;;;;;;;32.22;17.00;;;;;;;;;;6224846;23;20070;-94
2021/11/15 12:54:41;;;;;;;37.90;17.17;;;;;;;;;;6229125;23;20042;-95
2021/11/15 12:57:08;;;;;;;38.30;19.55;;;;;;;;;;6228873;23;20027;-95
2021/11/15 12:59:48;;;;;;;40.67;17.98;;;;;;;;;;6244183;22;20031;-96
2021/11/15 13:05:11;;;;;;;39.88;19.15;;;;;;;;;;6264885;22;20032;-95
2021/11/15 13:07:41;;;;;;;34.60;18.55;;;;;;;;;;6263097;23;20008;-96
2021/11/15 13:10:11;;;;;;;32.28;18.73;;;;;;;;;;6265307;22;20004;-93
2021/11/15 13:12:41;;;;;;;35.50;17.25;;;;;;;;;;6258696;22;20004;-92
2021/11/15 13:15:27;;;;;;;40.95;20.63;;;;;;;;;;6258168;23;20020;-94
2021/11/15 13:18:13;;;;;;;36.03;19.25;;;;;;;;;;6272639;22;20001;-94
2021/11/15 13:21:17;;;;;;;43.80;20.02;;;;;;;;;;6272820;23;19992;-96
2021/11/15 13:23:47;;;;;;;38.72;19.15;;;;;;;;;;6264121;22;20064;-94
2021/11/15 13:26:16;;;;;;;37.58;20.23;;;;;;;;;;6262813;23;20008;-95
2021/11/15 13:28:45;;;;;;;34.80;19.13;;;;;;;;;;6260194;22;20008;-93
2021/11/15 13:31:12;;;;;;;36.35;19.13;;;;;;;;;;6256318;23;20011;-96
2021/11/15 13:33:54;;;;;;;38.85;19.92;;;;;;;;;;6264642;22;20019;-95
2021/11/15 13:36:24;;;;;;;38.80;19.10;;;;;;;;;;6259111;23;19988;-96
2021/11/15 13:38:56;;;;;;;39.42;19.30;;;;;;;;;;6266061;23;20064;-94
2021/11/15 13:53:35;;;;;;;34.22;16.05;;;;;;;;;;6231111;22;20095;-94
2021/11/15 14:04:21;;;;;;;41.30;17.23;;;;;;;;;;6242243;22;20926;-93
2021/11/15 14:41:02;;;;;;;51.47;21.08;;;;;;;;;;6254242;22;20072;-93
2021/11/15 14:53:19;;;;;;;44.30;19.83;;;;;;;;;;6243386;22;20038;-94
2021/11/15 16:11:09;;;;;;;43.42;17.95;;;;;;;;;;6236746;22;20112;-93
2021/11/15 16:19:31;;;;;;;;;;;;;;;;;;6315441;22;19996;-93
2021/11/15 16:22:17;;;;;;;50.25;16.65;;;;;;;;;;6265230;22;19907;-94
2021/11/15 16:25:19;;;;;;;41.60;17.10;;;;;;;;;;6185153;22;20032;31
2021/11/15 16:34:06;;;;;;;45.78;16.98;;;;;;;;;;6274870;22;20063;-94
2021/11/15 17:44:13;;;;;;;81.30;22.98;;;;;;;;;;6274582;22;20224;-93
2021/11/15 17:46:59;;;;;;;102.20;24.10;;;;;;;;;;6245279;23;20016;-92
2021/11/15 17:49:27;;;;;;;89.60;24.98;;;;;;;;;;6235156;23;20339;-93
2021/11/15 17:52:16;;;;;;;75.47;24.00;;;;;;;;;;6235451;23;20004;-94
2021/11/15 18:01:08;;;;;;;94.85;23.05;;;;;;;;;;6235003;22;20009;-93
2021/11/15 18:46:23;;;;;;;113.75;26.95;;;;;;;;;;6241767;22;20087;31
2021/11/15 19:40:42;;;;;;;133.60;23.10;;;;;;;;;;6266523;22;20031;-93
2021/11/15 19:46:57;;;;;;;78.60;20.65;;;;;;;;;;6231858;22;20032;-95
2021/11/15 19:50:21;;;;;;;80.65;20.15;;;;;;;;;;6246158;22;20015;-96
2021/11/15 19:56:20;;;;;;;115.32;23.30;;;;;;;;;;6201954;22;20059;-94
2021/11/15 20:10:15;;;;;;;65.38;21.85;;;;;;;;;;6289119;22;20008;-93
2021/11/15 20:15:43;;;;;;;63.85;22.10;;;;;;;;;;6268708;22;20067;-88
2021/11/15 20:18:10;;;;;;;54.90;19.70;;;;;;;;;;6190987;23;20097;-86
2021/11/15 20:21:00;;;;;;;64.30;22.08;;;;;;;;;;6264100;23;20008;-87
2021/11/15 20:23:30;;;;;;;53.92;21.33;;;;;;;;;;6233492;23;20008;-87
2021/11/15 20:25:59;;;;;;;61.47;20.65;;;;;;;;;;6233018;23;20005;-87
2021/11/15 20:28:48;;;;;;;67.70;19.92;;;;;;;;;;6216907;23;20052;-88
2021/11/15 20:31:23;;;;;;;57.58;20.20;;;;;;;;;;6209954;23;20000;-86
2021/11/15 20:34:15;;;;;;;70.32;24.52;;;;;;;;;;6243112;23;20012;-87
2021/11/15 20:36:42;;;;;;;70.30;21.95;;;;;;;;;;6216117;23;20019;-87
2021/11/15 20:40:01;;;;;;;62.17;21.33;;;;;;;;;;6194725;22;20874;-87
2021/11/15 20:43:11;;;;;;;63.15;20.67;;;;;;;;;;6273716;22;20020;-87
2021/11/15 20:48:57;;;;;;;75.78;23.25;;;;;;;;;;6244920;22;20004;-87
2021/11/15 20:51:57;;;;;;;64.45;21.08;;;;;;;;;;6273194;22;20000;-87
2021/11/15 21:00:33;;;;;;;59.05;21.63;;;;;;;;;;6274915;22;20020;-88
2021/11/15 21:03:52;;;;;;;62.35;20.35;;;;;;;;;;6276291;22;19997;-90
2021/11/15 21:06:37;;;;;;;;;;;;;;;;;;6274809;22;19988;-90
2021/11/15 21:15:06;;;;;;;69.40;21.80;;;;;;;;;;6290581;22;20000;-87
2021/11/15 21:18:18;;;;;;;56.17;19.75;;;;;;;;;;6274685;22;20007;-89
2021/11/15 21:27:21;;;;;;;75.65;20.75;;;;;;;;;;6252844;22;20206;-87
2021/11/15 21:30:14;;;;;;;68.95;20.85;;;;;;;;;;6277797;22;20029;-89
2021/11/15 21:36:30;;;;;;;60.75;19.77;;;;;;;;;;6268302;22;20027;-87
2021/11/15 21:39:51;;;;;;;61.00;18.63;;;;;;;;;;6244340;22;19993;-90
2021/11/15 21:42:50;;;;;;;64.97;19.88;;;;;;;;;;6206771;22;20088;-87
2021/11/15 21:51:00;;;;;;;55.05;18.98;;;;;;;;;;6235903;22;19996;-87
2021/11/15 21:54:13;;;;;;;106.90;19.15;;;;;;;;;;6184610;23;19998;-88
2021/11/15 21:59:33;;;;;;;52.97;20.40;;;;;;;;;;6264967;22;19997;-90
2021/11/15 22:02:15;;;;;;;76.82;21.90;;;;;;;;;;6253949;22;20027;-88
2021/11/15 22:05:31;;;;;;;72.63;19.63;;;;;;;;;;6243801;23;20013;-90
2021/11/15 22:08:43;;;;;;;55.50;18.20;;;;;;;;;;6243893;23;20001;-88
2021/11/15 22:14:07;;;;;;;57.05;17.73;;;;;;;;;;6260625;22;20005;-87
2021/11/15 22:19:35;;;;;;;53.10;18.85;;;;;;;;;;6244535;22;20044;-87
2021/11/15 22:22:46;;;;;;;57.38;17.92;;;;;;;;;;6239184;22;20016;-87
2021/11/15 22:25:40;;;;;;;54.13;16.27;;;;;;;;;;6273883;22;20008;-87
2021/11/15 22:33:45;;;;;;;57.22;18.33;;;;;;;;;;6234352;22;20028;-89
2021/11/15 22:36:35;;;;;;;57.38;17.92;;;;;;;;;;6242943;23;20013;-86
2021/11/15 22:41:58;;;;;;;52.30;16.60;;;;;;;;;;6280072;22;20372;-90
2021/11/15 22:44:46;;;;;;;52.83;16.60;;;;;;;;;;6305431;22;20003;-89
2021/11/15 22:48:10;;;;;;;50.22;17.77;;;;;;;;;;6219096;22;20380;-88